LFPOLFSD

Guest
Details From LFPO - Paris Orly
To LFSD - Dijon Longvic AB
Flight Number -
Tags generated
Created
Modified
Stats Distance 140 nm / 260 km
Max Altitude 13,200 ft / 4,023 m
Waypoints 3
Social Downloads 2
Likes 0
Share VATSIM

Download

Looking for another format? Having issues loading an existing format? Contact us
Advertisement - Login to hide

Notes

Basic altitude profile: - Ascent Rate: 2500ft/min - Ascent Speed: 250kts - Cruise Altitude: 35000ft - Cruise Speed: 420kts - Descent Rate: 1500ft/min - Descent Speed: 250kts

Route

LFPO DIVDA LFSD

ID Type Via Altitude Latitude Longitude Leg Dist Tot Dist Heading (true) Name
O LFPO APT - 0 ft / 0 m 48.72636˚ 2.36703˚ - 0 nm - Paris Orly
DIVDA FIX - 13,200 ft / 4,023 m 47.95917˚ 3.80861˚ 73 nm 73 nm 128° / 129° -
O LFSD APT - 0 ft / 0 m 47.26901˚ 5.09012˚ 66 nm 140 nm 128° / 129° Dijon Longvic AB

Altitude Profile

Advertisement - Login to hide

LFPO

Details ICAO LFPO (ORY)
Name Paris Orly
Region France
Timezone Europe/Paris (UTC+1.0)
Stats Elevation 291 ft / 89 m (AMSL)
Location 48.726360° 2.367029°
Runways 3
Magnetic Variation 0.602° E

METAR

LFPO 181230Z 01011KT 9999 BKN020 08/03 Q1026 NOSIG

Decode

TAF

TAF LFPO 181100Z 1812/1918 35008KT 9999 SCT020 TEMPO 1812/1818 BKN030 BECMG 1902/1905 2000 BR OVC003 TEMPO 1903/1910 0200 FG VV/// BECMG 1914/1917 6000 BKN008

Decode

Departure Runways

ID Width Length Bearing (true) Bearing (mag) Surface Threshold Offset Overrun Length
02 197 ft / 60 m 7,873 ft / 2,400 m 18.29° 17.69° Concrete 0 ft / 0 m 0 ft / 0 m
06 148 ft / 45 m 11,952 ft / 3,643 m 61.78° 61.18° Asphalt 984 ft / 300 m 197 ft / 60 m
08 148 ft / 45 m 10,868 ft / 3,313 m 74.36° 73.76° Concrete 0 ft / 0 m 1,050 ft / 320 m
20 197 ft / 60 m 7,873 ft / 2,400 m 198.30° 197.70° Concrete 0 ft / 0 m 0 ft / 0 m
24 148 ft / 45 m 11,952 ft / 3,643 m 241.81° 241.21° Asphalt 0 ft / 0 m 197 ft / 60 m
26 148 ft / 45 m 10,868 ft / 3,313 m 254.39° 253.79° Concrete 1,427 ft / 435 m 0 ft / 0 m

LFSD

Details ICAO LFSD (DIJ)
Name Dijon Longvic AB
Region France
Timezone Europe/Paris (UTC+1.0)
Stats Elevation 726 ft / 221 m (AMSL)
Location 47.269011° 5.090116°
Runways 2
Magnetic Variation 1.449° E

METAR

LFSD 181230Z AUTO 00000KT 5000 BR BKN002 BKN018 03/02 Q1023

Decode

TAF

Not found

Destination Runways

ID Width Length Bearing (true) Bearing (mag) Surface Threshold Offset Overrun Length
02 118 ft / 36 m 6,054 ft / 1,845 m 15.20° 13.75° Asphalt 0 ft / 0 m 328 ft / 100 m
18 148 ft / 45 m 7,877 ft / 2,401 m 175.00° 173.55° Asphalt 0 ft / 0 m 1,385 ft / 422 m
20 118 ft / 36 m 6,054 ft / 1,845 m 195.20° 193.75° Asphalt 0 ft / 0 m 443 ft / 135 m
36 148 ft / 45 m 7,877 ft / 2,401 m 355.00° 353.55° Asphalt 0 ft / 0 m 1,099 ft / 335 m

Approach Navaids

Runway Type Ident Frequency Range Bearing (true) Bearing (mag) Slope Elevation
36 Localiser DJ 109.50 MHz 18 nm / 33 km 354.99° 353.54° - 728 ft / 222 m (AMSL)
36 Glidescope DJ 109.50 MHz 10 nm / 19 km 355.00° 353.55° 3.00° 728 ft / 222 m (AMSL)